sensor_id;sensor_type;location;lat;lon;timestamp;P1;durP1;ratioP1;P2;durP2;ratioP2
67227;SDS011;54139;42.616;23.748;2023-04-24T00:00:53;6.55;;;5.78;;
67227;SDS011;54139;42.616;23.748;2023-04-24T00:03:21;6.93;;;5.55;;
67227;SDS011;54139;42.616;23.748;2023-04-24T00:05:47;6.13;;;5.50;;
67227;SDS011;54139;42.616;23.748;2023-04-24T00:08:12;7.47;;;5.05;;
67227;SDS011;54139;42.616;23.748;2023-04-24T00:10:37;6.88;;;5.90;;
67227;SDS011;54139;42.616;23.748;2023-04-24T00:13:03;8.40;;;5.40;;
67227;SDS011;54139;42.616;23.748;2023-04-24T00:15:28;8.23;;;5.70;;
67227;SDS011;54139;42.616;23.748;2023-04-24T00:17:53;6.10;;;4.63;;
67227;SDS011;54139;42.616;23.748;2023-04-24T00:20:19;6.15;;;5.07;;
67227;SDS011;54139;42.616;23.748;2023-04-24T00:22:44;5.60;;;5.05;;
67227;SDS011;54139;42.616;23.748;2023-04-24T00:25:10;6.60;;;5.22;;
67227;SDS011;54139;42.616;23.748;2023-04-24T00:27:35;7.32;;;5.35;;
67227;SDS011;54139;42.616;23.748;2023-04-24T00:30:02;9.30;;;4.30;;
67227;SDS011;54139;42.616;23.748;2023-04-24T00:32:27;8.32;;;5.40;;
67227;SDS011;54139;42.616;23.748;2023-04-24T00:34:52;6.55;;;5.68;;
67227;SDS011;54139;42.616;23.748;2023-04-24T00:37:18;7.20;;;5.87;;
67227;SDS011;54139;42.616;23.748;2023-04-24T00:39:43;8.48;;;5.68;;
67227;SDS011;54139;42.616;23.748;2023-04-24T00:42:08;6.13;;;5.05;;
67227;SDS011;54139;42.616;23.748;2023-04-24T00:44:34;5.53;;;4.90;;
67227;SDS011;54139;42.616;23.748;2023-04-24T00:46:59;9.15;;;6.00;;
67227;SDS011;54139;42.616;23.748;2023-04-24T00:49:25;9.50;;;5.55;;
67227;SDS011;54139;42.616;23.748;2023-04-24T00:51:51;6.18;;;5.25;;
67227;SDS011;54139;42.616;23.748;2023-04-24T00:54:16;6.35;;;5.72;;
67227;SDS011;54139;42.616;23.748;2023-04-24T00:56:42;7.82;;;5.40;;
67227;SDS011;54139;42.616;23.748;2023-04-24T00:59:08;10.52;;;5.78;;
67227;SDS011;54139;42.616;23.748;2023-04-24T01:01:34;5.63;;;4.68;;
67227;SDS011;54139;42.616;23.748;2023-04-24T01:03:59;6.95;;;4.00;;
67227;SDS011;54139;42.616;23.748;2023-04-24T01:06:27;4.25;;;3.85;;
67227;SDS011;54139;42.616;23.748;2023-04-24T01:08:52;4.15;;;3.72;;
67227;SDS011;54139;42.616;23.748;2023-04-24T01:11:18;4.20;;;3.90;;
67227;SDS011;54139;42.616;23.748;2023-04-24T01:13:43;6.30;;;4.60;;
67227;SDS011;54139;42.616;23.748;2023-04-24T01:16:08;7.57;;;3.70;;
67227;SDS011;54139;42.616;23.748;2023-04-24T01:18:34;8.15;;;5.60;;
67227;SDS011;54139;42.616;23.748;2023-04-24T01:20:59;7.45;;;5.55;;
67227;SDS011;54139;42.616;23.748;2023-04-24T01:23:28;5.65;;;5.15;;
67227;SDS011;54139;42.616;23.748;2023-04-24T01:25:53;6.93;;;4.20;;
67227;SDS011;54139;42.616;23.748;2023-04-24T01:28:19;6.68;;;4.13;;
67227;SDS011;54139;42.616;23.748;2023-04-24T01:30:44;4.93;;;4.53;;
67227;SDS011;54139;42.616;23.748;2023-04-24T01:33:09;5.30;;;4.53;;
67227;SDS011;54139;42.616;23.748;2023-04-24T01:35:35;10.07;;;5.22;;
67227;SDS011;54139;42.616;23.748;2023-04-24T01:38:01;5.40;;;4.10;;
67227;SDS011;54139;42.616;23.748;2023-04-24T01:40:26;4.75;;;4.35;;
67227;SDS011;54139;42.616;23.748;2023-04-24T01:42:52;4.45;;;4.05;;
67227;SDS011;54139;42.616;23.748;2023-04-24T01:45:17;8.10;;;5.78;;
67227;SDS011;54139;42.616;23.748;2023-04-24T01:47:42;11.18;;;5.00;;
67227;SDS011;54139;42.616;23.748;2023-04-24T01:50:08;10.27;;;5.93;;
67227;SDS011;54139;42.616;23.748;2023-04-24T01:52:34;8.80;;;5.05;;
67227;SDS011;54139;42.616;23.748;2023-04-24T01:55:01;6.82;;;5.82;;
67227;SDS011;54139;42.616;23.748;2023-04-24T01:57:26;6.28;;;5.68;;
67227;SDS011;54139;42.616;23.748;2023-04-24T01:59:51;8.55;;;5.22;;
67227;SDS011;54139;42.616;23.748;2023-04-24T02:02:17;7.22;;;5.57;;
67227;SDS011;54139;42.616;23.748;2023-04-24T02:04:42;7.05;;;6.32;;
67227;SDS011;54139;42.616;23.748;2023-04-24T02:07:07;10.70;;;6.00;;
67227;SDS011;54139;42.616;23.748;2023-04-24T02:09:33;7.72;;;6.95;;
67227;SDS011;54139;42.616;23.748;2023-04-24T02:11:58;9.45;;;8.38;;
67227;SDS011;54139;42.616;23.748;2023-04-24T02:14:23;8.70;;;7.30;;
67227;SDS011;54139;42.616;23.748;2023-04-24T02:16:48;8.40;;;7.03;;
67227;SDS011;54139;42.616;23.748;2023-04-24T02:19:14;7.22;;;6.00;;
67227;SDS011;54139;42.616;23.748;2023-04-24T02:21:39;7.65;;;7.00;;
67227;SDS011;54139;42.616;23.748;2023-04-24T02:24:04;7.65;;;6.45;;
67227;SDS011;54139;42.616;23.748;2023-04-24T02:26:29;7.60;;;7.00;;
67227;SDS011;54139;42.616;23.748;2023-04-24T02:28:56;6.90;;;6.20;;
67227;SDS011;54139;42.616;23.748;2023-04-24T02:31:22;7.93;;;5.70;;
67227;SDS011;54139;42.616;23.748;2023-04-24T02:33:47;9.77;;;6.90;;
67227;SDS011;54139;42.616;23.748;2023-04-24T02:36:12;7.10;;;6.45;;
67227;SDS011;54139;42.616;23.748;2023-04-24T02:38:38;7.63;;;6.93;;
67227;SDS011;54139;42.616;23.748;2023-04-24T02:41:03;8.43;;;7.70;;
67227;SDS011;54139;42.616;23.748;2023-04-24T02:43:31;6.75;;;6.13;;
67227;SDS011;54139;42.616;23.748;2023-04-24T02:45:56;8.90;;;6.47;;
67227;SDS011;54139;42.616;23.748;2023-04-24T02:48:21;8.25;;;6.43;;
67227;SDS011;54139;42.616;23.748;2023-04-24T02:50:46;7.70;;;5.53;;
67227;SDS011;54139;42.616;23.748;2023-04-24T02:53:12;7.38;;;5.53;;
67227;SDS011;54139;42.616;23.748;2023-04-24T02:55:38;6.50;;;5.80;;
67227;SDS011;54139;42.616;23.748;2023-04-24T02:58:03;12.05;;;6.43;;
67227;SDS011;54139;42.616;23.748;2023-04-24T03:00:28;6.83;;;6.27;;
67227;SDS011;54139;42.616;23.748;2023-04-24T03:02:53;8.60;;;6.05;;
67227;SDS011;54139;42.616;23.748;2023-04-24T03:05:18;7.97;;;5.75;;
67227;SDS011;54139;42.616;23.748;2023-04-24T03:07:44;7.97;;;5.53;;
67227;SDS011;54139;42.616;23.748;2023-04-24T03:10:10;5.18;;;4.68;;
67227;SDS011;54139;42.616;23.748;2023-04-24T03:12:35;7.00;;;5.32;;
67227;SDS011;54139;42.616;23.748;2023-04-24T03:15:01;11.05;;;6.22;;
67227;SDS011;54139;42.616;23.748;2023-04-24T03:17:26;6.35;;;4.15;;
67227;SDS011;54139;42.616;23.748;2023-04-24T03:19:51;7.18;;;5.05;;
67227;SDS011;54139;42.616;23.748;2023-04-24T03:22:17;6.65;;;4.88;;
67227;SDS011;54139;42.616;23.748;2023-04-24T03:24:42;5.87;;;4.40;;
67227;SDS011;54139;42.616;23.748;2023-04-24T03:27:07;6.93;;;4.97;;
67227;SDS011;54139;42.616;23.748;2023-04-24T03:29:32;8.35;;;4.35;;
67227;SDS011;54139;42.616;23.748;2023-04-24T03:31:58;4.40;;;3.95;;
67227;SDS011;54139;42.616;23.748;2023-04-24T03:34:23;4.60;;;4.07;;
67227;SDS011;54139;42.616;23.748;2023-04-24T03:36:48;8.65;;;7.85;;
67227;SDS011;54139;42.616;23.748;2023-04-24T03:39:14;12.55;;;8.25;;
67227;SDS011;54139;42.616;23.748;2023-04-24T03:41:39;22.15;;;13.95;;
67227;SDS011;54139;42.616;23.748;2023-04-24T03:44:04;13.57;;;8.57;;
67227;SDS011;54139;42.616;23.748;2023-04-24T03:46:29;16.10;;;8.98;;
67227;SDS011;54139;42.616;23.748;2023-04-24T03:48:55;20.48;;;9.32;;
67227;SDS011;54139;42.616;23.748;2023-04-24T03:51:20;19.65;;;11.27;;
67227;SDS011;54139;42.616;23.748;2023-04-24T03:53:45;8.07;;;6.70;;
67227;SDS011;54139;42.616;23.748;2023-04-24T03:56:11;7.18;;;5.45;;
67227;SDS011;54139;42.616;23.748;2023-04-24T03:58:36;10.02;;;5.47;;
67227;SDS011;54139;42.616;23.748;2023-04-24T04:01:01;5.30;;;4.80;;
67227;SDS011;54139;42.616;23.748;2023-04-24T04:03:27;8.52;;;4.07;;
67227;SDS011;54139;42.616;23.748;2023-04-24T04:05:53;7.63;;;4.53;;
67227;SDS011;54139;42.616;23.748;2023-04-24T04:08:19;8.38;;;4.22;;
67227;SDS011;54139;42.616;23.748;2023-04-24T04:10:44;5.63;;;4.25;;
67227;SDS011;54139;42.616;23.748;2023-04-24T04:13:09;6.32;;;4.75;;
67227;SDS011;54139;42.616;23.748;2023-04-24T04:15:35;5.43;;;4.50;;
67227;SDS011;54139;42.616;23.748;2023-04-24T04:18:00;6.13;;;4.40;;
67227;SDS011;54139;42.616;23.748;2023-04-24T04:20:26;6.43;;;4.53;;
67227;SDS011;54139;42.616;23.748;2023-04-24T04:22:51;6.07;;;4.00;;
67227;SDS011;54139;42.616;23.748;2023-04-24T04:25:16;6.20;;;3.83;;
67227;SDS011;54139;42.616;23.748;2023-04-24T04:27:44;4.60;;;4.05;;
67227;SDS011;54139;42.616;23.748;2023-04-24T04:30:09;5.30;;;3.67;;
67227;SDS011;54139;42.616;23.748;2023-04-24T04:32:35;8.13;;;4.32;;
67227;SDS011;54139;42.616;23.748;2023-04-24T04:35:00;5.75;;;3.70;;
67227;SDS011;54139;42.616;23.748;2023-04-24T04:37:29;6.53;;;3.38;;
67227;SDS011;54139;42.616;23.748;2023-04-24T04:39:54;10.32;;;3.92;;
67227;SDS011;54139;42.616;23.748;2023-04-24T04:42:20;5.95;;;3.72;;
67227;SDS011;54139;42.616;23.748;2023-04-24T04:44:45;4.68;;;3.65;;
67227;SDS011;54139;42.616;23.748;2023-04-24T04:47:11;4.75;;;4.32;;
67227;SDS011;54139;42.616;23.748;2023-04-24T04:49:37;6.40;;;4.00;;
67227;SDS011;54139;42.616;23.748;2023-04-24T04:52:03;5.70;;;3.90;;
67227;SDS011;54139;42.616;23.748;2023-04-24T04:54:28;3.57;;;3.27;;
67227;SDS011;54139;42.616;23.748;2023-04-24T04:56:54;6.65;;;3.40;;
67227;SDS011;54139;42.616;23.748;2023-04-24T04:59:19;5.68;;;3.90;;
67227;SDS011;54139;42.616;23.748;2023-04-24T05:01:45;3.85;;;3.05;;
67227;SDS011;54139;42.616;23.748;2023-04-24T05:04:10;4.68;;;3.13;;
67227;SDS011;54139;42.616;23.748;2023-04-24T05:06:35;6.72;;;3.40;;
67227;SDS011;54139;42.616;23.748;2023-04-24T05:09:01;5.53;;;3.67;;
67227;SDS011;54139;42.616;23.748;2023-04-24T05:11:26;3.40;;;3.10;;
67227;SDS011;54139;42.616;23.748;2023-04-24T05:13:52;7.10;;;3.03;;
67227;SDS011;54139;42.616;23.748;2023-04-24T05:16:17;3.63;;;3.30;;
67227;SDS011;54139;42.616;23.748;2023-04-24T05:18:42;4.22;;;3.40;;
67227;SDS011;54139;42.616;23.748;2023-04-24T05:21:07;4.00;;;2.90;;
67227;SDS011;54139;42.616;23.748;2023-04-24T05:23:33;9.63;;;3.33;;
67227;SDS011;54139;42.616;23.748;2023-04-24T05:25:58;6.80;;;3.70;;
67227;SDS011;54139;42.616;23.748;2023-04-24T05:28:23;7.05;;;3.90;;
67227;SDS011;54139;42.616;23.748;2023-04-24T05:30:53;6.22;;;3.53;;
67227;SDS011;54139;42.616;23.748;2023-04-24T05:33:18;4.90;;;3.42;;
67227;SDS011;54139;42.616;23.748;2023-04-24T05:35:43;5.47;;;3.60;;
67227;SDS011;54139;42.616;23.748;2023-04-24T05:38:11;4.80;;;3.47;;
67227;SDS011;54139;42.616;23.748;2023-04-24T05:40:37;5.00;;;3.40;;
67227;SDS011;54139;42.616;23.748;2023-04-24T05:43:02;4.57;;;3.20;;
67227;SDS011;54139;42.616;23.748;2023-04-24T05:45:27;4.30;;;3.07;;
67227;SDS011;54139;42.616;23.748;2023-04-24T05:47:53;5.28;;;3.10;;
67227;SDS011;54139;42.616;23.748;2023-04-24T05:50:18;5.45;;;3.10;;
67227;SDS011;54139;42.616;23.748;2023-04-24T05:52:44;4.82;;;2.90;;
67227;SDS011;54139;42.616;23.748;2023-04-24T05:55:09;4.18;;;3.08;;
67227;SDS011;54139;42.616;23.748;2023-04-24T05:57:35;3.22;;;2.90;;
67227;SDS011;54139;42.616;23.748;2023-04-24T06:00:00;4.75;;;3.10;;
67227;SDS011;54139;42.616;23.748;2023-04-24T06:02:25;10.20;;;3.37;;
67227;SDS011;54139;42.616;23.748;2023-04-24T06:04:50;6.32;;;3.35;;
67227;SDS011;54139;42.616;23.748;2023-04-24T06:07:16;10.27;;;3.92;;
67227;SDS011;54139;42.616;23.748;2023-04-24T06:09:42;6.32;;;3.10;;
67227;SDS011;54139;42.616;23.748;2023-04-24T06:12:07;4.25;;;3.55;;
67227;SDS011;54139;42.616;23.748;2023-04-24T06:14:33;4.72;;;3.50;;
67227;SDS011;54139;42.616;23.748;2023-04-24T06:16:59;5.20;;;3.55;;
67227;SDS011;54139;42.616;23.748;2023-04-24T06:19:24;4.97;;;3.70;;
67227;SDS011;54139;42.616;23.748;2023-04-24T06:21:49;5.78;;;3.95;;
67227;SDS011;54139;42.616;23.748;2023-04-24T06:24:15;6.03;;;3.33;;
67227;SDS011;54139;42.616;23.748;2023-04-24T06:26:42;4.57;;;3.20;;
67227;SDS011;54139;42.616;23.748;2023-04-24T06:29:08;5.75;;;3.72;;
67227;SDS011;54139;42.616;23.748;2023-04-24T06:31:33;5.03;;;3.83;;
67227;SDS011;54139;42.616;23.748;2023-04-24T06:34:02;5.60;;;3.20;;
67227;SDS011;54139;42.616;23.748;2023-04-24T06:36:27;6.28;;;2.95;;
67227;SDS011;54139;42.616;23.748;2023-04-24T06:38:53;4.35;;;3.22;;
67227;SDS011;54139;42.616;23.748;2023-04-24T06:41:18;4.10;;;3.00;;
67227;SDS011;54139;42.616;23.748;2023-04-24T06:43:44;4.15;;;2.92;;
67227;SDS011;54139;42.616;23.748;2023-04-24T06:46:09;4.20;;;2.92;;
67227;SDS011;54139;42.616;23.748;2023-04-24T06:48:35;6.88;;;3.10;;
67227;SDS011;54139;42.616;23.748;2023-04-24T06:51:00;4.77;;;3.60;;
67227;SDS011;54139;42.616;23.748;2023-04-24T06:53:25;5.73;;;3.37;;
67227;SDS011;54139;42.616;23.748;2023-04-24T06:55:51;3.05;;;2.83;;
67227;SDS011;54139;42.616;23.748;2023-04-24T06:58:16;4.50;;;2.73;;
67227;SDS011;54139;42.616;23.748;2023-04-24T07:00:41;4.60;;;3.17;;
67227;SDS011;54139;42.616;23.748;2023-04-24T07:03:06;6.83;;;2.90;;
67227;SDS011;54139;42.616;23.748;2023-04-24T07:05:32;6.32;;;3.40;;
67227;SDS011;54139;42.616;23.748;2023-04-24T07:08:00;4.67;;;2.80;;
67227;SDS011;54139;42.616;23.748;2023-04-24T07:10:25;3.57;;;2.70;;
67227;SDS011;54139;42.616;23.748;2023-04-24T07:12:54;3.97;;;3.13;;
67227;SDS011;54139;42.616;23.748;2023-04-24T07:15:19;3.65;;;2.97;;
67227;SDS011;54139;42.616;23.748;2023-04-24T07:17:44;5.88;;;3.15;;
67227;SDS011;54139;42.616;23.748;2023-04-24T07:20:10;4.72;;;3.20;;
67227;SDS011;54139;42.616;23.748;2023-04-24T07:22:39;3.60;;;3.20;;
67227;SDS011;54139;42.616;23.748;2023-04-24T07:25:04;5.43;;;3.38;;
67227;SDS011;54139;42.616;23.748;2023-04-24T07:27:30;6.00;;;3.78;;
67227;SDS011;54139;42.616;23.748;2023-04-24T07:29:55;5.70;;;3.42;;
67227;SDS011;54139;42.616;23.748;2023-04-24T07:32:20;3.95;;;3.15;;
67227;SDS011;54139;42.616;23.748;2023-04-24T07:34:46;4.68;;;3.63;;
67227;SDS011;54139;42.616;23.748;2023-04-24T07:37:11;5.57;;;3.25;;
67227;SDS011;54139;42.616;23.748;2023-04-24T07:39:36;5.60;;;3.80;;
67227;SDS011;54139;42.616;23.748;2023-04-24T07:42:02;6.53;;;4.80;;
67227;SDS011;54139;42.616;23.748;2023-04-24T07:44:27;5.57;;;3.17;;
67227;SDS011;54139;42.616;23.748;2023-04-24T07:46:52;3.15;;;2.85;;
67227;SDS011;54139;42.616;23.748;2023-04-24T07:49:18;4.13;;;3.33;;
67227;SDS011;54139;42.616;23.748;2023-04-24T07:51:43;3.92;;;3.33;;
67227;SDS011;54139;42.616;23.748;2023-04-24T07:54:08;7.03;;;3.47;;
67227;SDS011;54139;42.616;23.748;2023-04-24T07:56:33;3.83;;;3.22;;
67227;SDS011;54139;42.616;23.748;2023-04-24T07:58:59;4.38;;;3.97;;
67227;SDS011;54139;42.616;23.748;2023-04-24T08:01:26;5.78;;;4.38;;
67227;SDS011;54139;42.616;23.748;2023-04-24T08:03:51;3.92;;;3.47;;
67227;SDS011;54139;42.616;23.748;2023-04-24T08:06:16;4.05;;;3.65;;
67227;SDS011;54139;42.616;23.748;2023-04-24T08:08:42;4.10;;;3.40;;
67227;SDS011;54139;42.616;23.748;2023-04-24T08:11:07;5.80;;;4.00;;
67227;SDS011;54139;42.616;23.748;2023-04-24T08:13:32;5.97;;;3.90;;
67227;SDS011;54139;42.616;23.748;2023-04-24T08:15:57;4.77;;;3.77;;
67227;SDS011;54139;42.616;23.748;2023-04-24T08:18:23;4.20;;;3.33;;
67227;SDS011;54139;42.616;23.748;2023-04-24T08:20:48;4.30;;;3.72;;
67227;SDS011;54139;42.616;23.748;2023-04-24T08:23:13;3.85;;;3.15;;
67227;SDS011;54139;42.616;23.748;2023-04-24T08:25:39;3.88;;;3.30;;
67227;SDS011;54139;42.616;23.748;2023-04-24T08:28:05;3.97;;;3.60;;
67227;SDS011;54139;42.616;23.748;2023-04-24T08:30:30;4.63;;;3.70;;
67227;SDS011;54139;42.616;23.748;2023-04-24T08:32:56;6.47;;;3.60;;
67227;SDS011;54139;42.616;23.748;2023-04-24T08:35:21;7.10;;;3.53;;
67227;SDS011;54139;42.616;23.748;2023-04-24T08:37:48;6.88;;;3.35;;
67227;SDS011;54139;42.616;23.748;2023-04-24T08:40:13;6.13;;;3.40;;
67227;SDS011;54139;42.616;23.748;2023-04-24T08:42:41;4.78;;;3.50;;
67227;SDS011;54139;42.616;23.748;2023-04-24T08:45:07;4.13;;;3.20;;
67227;SDS011;54139;42.616;23.748;2023-04-24T08:47:32;4.35;;;3.95;;
67227;SDS011;54139;42.616;23.748;2023-04-24T08:49:58;4.72;;;3.65;;
67227;SDS011;54139;42.616;23.748;2023-04-24T08:52:25;5.18;;;3.53;;
67227;SDS011;54139;42.616;23.748;2023-04-24T08:54:50;3.97;;;3.55;;
67227;SDS011;54139;42.616;23.748;2023-04-24T08:57:17;4.68;;;3.40;;
67227;SDS011;54139;42.616;23.748;2023-04-24T08:59:43;4.00;;;3.25;;
67227;SDS011;54139;42.616;23.748;2023-04-24T09:02:09;6.38;;;3.33;;
67227;SDS011;54139;42.616;23.748;2023-04-24T09:04:35;3.92;;;3.45;;
67227;SDS011;54139;42.616;23.748;2023-04-24T09:07:01;6.32;;;3.92;;
67227;SDS011;54139;42.616;23.748;2023-04-24T09:09:27;3.80;;;3.35;;
67227;SDS011;54139;42.616;23.748;2023-04-24T09:11:54;3.72;;;3.35;;
67227;SDS011;54139;42.616;23.748;2023-04-24T09:14:20;4.35;;;3.50;;
67227;SDS011;54139;42.616;23.748;2023-04-24T09:16:46;3.53;;;3.22;;
67227;SDS011;54139;42.616;23.748;2023-04-24T09:19:12;4.63;;;3.35;;
67227;SDS011;54139;42.616;23.748;2023-04-24T09:21:37;3.97;;;3.53;;
67227;SDS011;54139;42.616;23.748;2023-04-24T09:24:03;3.50;;;3.20;;
67227;SDS011;54139;42.616;23.748;2023-04-24T09:26:30;3.53;;;3.22;;
67227;SDS011;54139;42.616;23.748;2023-04-24T09:28:57;4.57;;;3.70;;
67227;SDS011;54139;42.616;23.748;2023-04-24T09:31:22;4.95;;;3.60;;
67227;SDS011;54139;42.616;23.748;2023-04-24T09:38:55;4.43;;;3.53;;
67227;SDS011;54139;42.616;23.748;2023-04-24T09:41:22;3.75;;;3.40;;
67227;SDS011;54139;42.616;23.748;2023-04-24T09:43:47;3.45;;;3.08;;
67227;SDS011;54139;42.616;23.748;2023-04-24T09:46:13;3.40;;;3.00;;
67227;SDS011;54139;42.616;23.748;2023-04-24T09:48:38;4.75;;;3.30;;
67227;SDS011;54139;42.616;23.748;2023-04-24T09:51:04;3.42;;;3.13;;
67227;SDS011;54139;42.616;23.748;2023-04-24T09:53:31;4.88;;;3.80;;
67227;SDS011;54139;42.616;23.748;2023-04-24T09:56:06;4.10;;;3.70;;
67227;SDS011;54139;42.616;23.748;2023-04-24T09:58:32;4.28;;;3.25;;
67227;SDS011;54139;42.616;23.748;2023-04-24T10:00:57;4.65;;;3.08;;
67227;SDS011;54139;42.616;23.748;2023-04-24T10:03:26;5.05;;;3.50;;
67227;SDS011;54139;42.616;23.748;2023-04-24T10:05:54;3.83;;;3.53;;
67227;SDS011;54139;42.616;23.748;2023-04-24T10:08:23;4.80;;;3.55;;
67227;SDS011;54139;42.616;23.748;2023-04-24T10:10:48;5.57;;;3.65;;
67227;SDS011;54139;42.616;23.748;2023-04-24T10:13:14;3.90;;;3.20;;
67227;SDS011;54139;42.616;23.748;2023-04-24T10:15:40;5.72;;;3.38;;
67227;SDS011;54139;42.616;23.748;2023-04-24T10:18:06;4.53;;;3.40;;
67227;SDS011;54139;42.616;23.748;2023-04-24T10:20:33;3.50;;;3.20;;
67227;SDS011;54139;42.616;23.748;2023-04-24T10:22:58;5.32;;;3.50;;
67227;SDS011;54139;42.616;23.748;2023-04-24T10:25:25;3.75;;;3.45;;
67227;SDS011;54139;42.616;23.748;2023-04-24T10:27:51;4.07;;;3.75;;
67227;SDS011;54139;42.616;23.748;2023-04-24T10:30:18;7.88;;;3.60;;
67227;SDS011;54139;42.616;23.748;2023-04-24T10:32:43;3.47;;;3.17;;
67227;SDS011;54139;42.616;23.748;2023-04-24T10:35:10;3.38;;;3.10;;
67227;SDS011;54139;42.616;23.748;2023-04-24T10:37:37;3.92;;;3.10;;
67227;SDS011;54139;42.616;23.748;2023-04-24T10:40:03;3.83;;;3.40;;
67227;SDS011;54139;42.616;23.748;2023-04-24T10:42:28;3.47;;;3.17;;
67227;SDS011;54139;42.616;23.748;2023-04-24T10:44:54;5.38;;;3.38;;
67227;SDS011;54139;42.616;23.748;2023-04-24T10:47:20;3.30;;;3.00;;
67227;SDS011;54139;42.616;23.748;2023-04-24T10:49:46;4.30;;;3.53;;
67227;SDS011;54139;42.616;23.748;2023-04-24T10:52:11;3.28;;;3.08;;
67227;SDS011;54139;42.616;23.748;2023-04-24T10:59:43;4.07;;;3.53;;
67227;SDS011;54139;42.616;23.748;2023-04-24T11:02:09;3.70;;;3.40;;
67227;SDS011;54139;42.616;23.748;2023-04-24T11:04:34;4.57;;;3.22;;
67227;SDS011;54139;42.616;23.748;2023-04-24T11:07:03;12.50;;;3.60;;
67227;SDS011;54139;42.616;23.748;2023-04-24T11:09:32;4.20;;;2.92;;
67227;SDS011;54139;42.616;23.748;2023-04-24T11:14:23;3.90;;;3.50;;
67227;SDS011;54139;42.616;23.748;2023-04-24T11:16:52;3.70;;;2.97;;
67227;SDS011;54139;42.616;23.748;2023-04-24T11:19:21;3.20;;;3.00;;
67227;SDS011;54139;42.616;23.748;2023-04-24T11:21:54;3.08;;;2.83;;
67227;SDS011;54139;42.616;23.748;2023-04-24T11:26:50;5.25;;;3.28;;
67227;SDS011;54139;42.616;23.748;2023-04-24T11:29:16;4.30;;;3.40;;
67227;SDS011;54139;42.616;23.748;2023-04-24T11:31:41;4.97;;;3.65;;
67227;SDS011;54139;42.616;23.748;2023-04-24T11:34:13;8.65;;;3.45;;
67227;SDS011;54139;42.616;23.748;2023-04-24T11:36:40;9.02;;;3.05;;
67227;SDS011;54139;42.616;23.748;2023-04-24T11:39:05;3.33;;;3.03;;
67227;SDS011;54139;42.616;23.748;2023-04-24T11:41:31;3.13;;;2.83;;
67227;SDS011;54139;42.616;23.748;2023-04-24T11:43:57;3.60;;;3.40;;
67227;SDS011;54139;42.616;23.748;2023-04-24T11:46:22;4.80;;;3.47;;
67227;SDS011;54139;42.616;23.748;2023-04-24T11:48:48;2.58;;;2.38;;
67227;SDS011;54139;42.616;23.748;2023-04-24T11:51:13;5.60;;;3.20;;
67227;SDS011;54139;42.616;23.748;2023-04-24T11:53:39;3.20;;;3.00;;
67227;SDS011;54139;42.616;23.748;2023-04-24T11:56:04;5.60;;;3.08;;
67227;SDS011;54139;42.616;23.748;2023-04-24T11:58:34;3.47;;;3.08;;
67227;SDS011;54139;42.616;23.748;2023-04-24T12:01:00;5.20;;;3.20;;
67227;SDS011;54139;42.616;23.748;2023-04-24T12:03:26;4.68;;;3.20;;
67227;SDS011;54139;42.616;23.748;2023-04-24T12:05:51;4.50;;;3.17;;
67227;SDS011;54139;42.616;23.748;2023-04-24T12:08:50;7.15;;;3.10;;
67227;SDS011;54139;42.616;23.748;2023-04-24T12:11:08;6.18;;;3.97;;
67227;SDS011;54139;42.616;23.748;2023-04-24T12:13:34;6.18;;;4.50;;
67227;SDS011;54139;42.616;23.748;2023-04-24T12:16:01;4.18;;;3.75;;
67227;SDS011;54139;42.616;23.748;2023-04-24T12:18:26;5.32;;;3.63;;
67227;SDS011;54139;42.616;23.748;2023-04-24T12:20:52;8.50;;;3.72;;
67227;SDS011;54139;42.616;23.748;2023-04-24T12:23:32;11.23;;;4.32;;
67227;SDS011;54139;42.616;23.748;2023-04-24T12:26:00;10.15;;;4.93;;
67227;SDS011;54139;42.616;23.748;2023-04-24T12:28:33;10.60;;;6.07;;
67227;SDS011;54139;42.616;23.748;2023-04-24T12:30:59;10.43;;;5.15;;
67227;SDS011;54139;42.616;23.748;2023-04-24T12:33:25;8.27;;;4.80;;
67227;SDS011;54139;42.616;23.748;2023-04-24T12:35:52;4.50;;;3.15;;
67227;SDS011;54139;42.616;23.748;2023-04-24T12:38:21;12.80;;;6.93;;
67227;SDS011;54139;42.616;23.748;2023-04-24T12:40:46;10.75;;;7.53;;
67227;SDS011;54139;42.616;23.748;2023-04-24T12:43:15;8.47;;;4.93;;
67227;SDS011;54139;42.616;23.748;2023-04-24T12:45:41;7.88;;;7.07;;
67227;SDS011;54139;42.616;23.748;2023-04-24T12:48:06;10.20;;;7.30;;
67227;SDS011;54139;42.616;23.748;2023-04-24T12:50:31;9.05;;;7.07;;
67227;SDS011;54139;42.616;23.748;2023-04-24T12:52:57;6.70;;;6.20;;
67227;SDS011;54139;42.616;23.748;2023-04-24T12:55:22;7.80;;;6.50;;
67227;SDS011;54139;42.616;23.748;2023-04-24T12:57:47;7.60;;;5.40;;
67227;SDS011;54139;42.616;23.748;2023-04-24T13:00:12;8.38;;;5.93;;
67227;SDS011;54139;42.616;23.748;2023-04-24T13:02:38;7.82;;;5.63;;
67227;SDS011;54139;42.616;23.748;2023-04-24T13:05:03;6.63;;;5.20;;
67227;SDS011;54139;42.616;23.748;2023-04-24T13:07:29;6.68;;;6.07;;
67227;SDS011;54139;42.616;23.748;2023-04-24T13:09:54;6.03;;;5.50;;
67227;SDS011;54139;42.616;23.748;2023-04-24T13:12:20;7.68;;;5.25;;
67227;SDS011;54139;42.616;23.748;2023-04-24T13:14:45;5.70;;;5.30;;
67227;SDS011;54139;42.616;23.748;2023-04-24T13:17:11;6.68;;;4.68;;
67227;SDS011;54139;42.616;23.748;2023-04-24T13:19:38;5.25;;;4.85;;
67227;SDS011;54139;42.616;23.748;2023-04-24T13:22:03;6.22;;;3.72;;
67227;SDS011;54139;42.616;23.748;2023-04-24T13:24:29;5.07;;;4.43;;
67227;SDS011;54139;42.616;23.748;2023-04-24T13:26:56;4.82;;;4.43;;
67227;SDS011;54139;42.616;23.748;2023-04-24T13:29:21;5.65;;;4.97;;
67227;SDS011;54139;42.616;23.748;2023-04-24T13:31:47;5.63;;;5.20;;
67227;SDS011;54139;42.616;23.748;2023-04-24T13:34:13;6.15;;;5.63;;
67227;SDS011;54139;42.616;23.748;2023-04-24T13:36:38;7.55;;;6.10;;
67227;SDS011;54139;42.616;23.748;2023-04-24T13:39:03;8.73;;;6.28;;
67227;SDS011;54139;42.616;23.748;2023-04-24T13:41:30;6.47;;;5.97;;
67227;SDS011;54139;42.616;23.748;2023-04-24T13:43:55;5.43;;;4.93;;
67227;SDS011;54139;42.616;23.748;2023-04-24T13:46:21;5.13;;;4.07;;
67227;SDS011;54139;42.616;23.748;2023-04-24T13:48:46;4.53;;;4.18;;
67227;SDS011;54139;42.616;23.748;2023-04-24T13:51:11;4.83;;;4.43;;
67227;SDS011;54139;42.616;23.748;2023-04-24T13:53:37;4.68;;;4.15;;
67227;SDS011;54139;42.616;23.748;2023-04-24T13:56:03;4.82;;;4.43;;
67227;SDS011;54139;42.616;23.748;2023-04-24T13:58:29;6.35;;;5.85;;
67227;SDS011;54139;42.616;23.748;2023-04-24T14:00:55;6.57;;;5.97;;
67227;SDS011;54139;42.616;23.748;2023-04-24T14:03:20;5.55;;;5.05;;
67227;SDS011;54139;42.616;23.748;2023-04-24T14:05:45;5.40;;;5.00;;
67227;SDS011;54139;42.616;23.748;2023-04-24T14:08:11;6.60;;;5.53;;
67227;SDS011;54139;42.616;23.748;2023-04-24T14:10:36;6.25;;;5.68;;
67227;SDS011;54139;42.616;23.748;2023-04-24T14:13:02;5.70;;;5.30;;
67227;SDS011;54139;42.616;23.748;2023-04-24T14:15:27;6.10;;;5.53;;
67227;SDS011;54139;42.616;23.748;2023-04-24T14:17:53;5.50;;;5.00;;
67227;SDS011;54139;42.616;23.748;2023-04-24T14:20:18;5.38;;;5.03;;
67227;SDS011;54139;42.616;23.748;2023-04-24T14:22:43;4.93;;;4.57;;
67227;SDS011;54139;42.616;23.748;2023-04-24T14:25:09;5.55;;;4.05;;
67227;SDS011;54139;42.616;23.748;2023-04-24T14:27:34;4.38;;;3.97;;
67227;SDS011;54139;42.616;23.748;2023-04-24T14:29:59;3.35;;;3.05;;
67227;SDS011;54139;42.616;23.748;2023-04-24T14:32:25;3.92;;;3.22;;
67227;SDS011;54139;42.616;23.748;2023-04-24T14:34:50;3.08;;;2.88;;
67227;SDS011;54139;42.616;23.748;2023-04-24T14:37:16;3.88;;;3.17;;
67227;SDS011;54139;42.616;23.748;2023-04-24T14:39:41;5.93;;;3.97;;